createdAt,value
2022-08-28T00:00:23.604Z,98350.09
2022-08-28T00:02:50.410Z,98262.25
2022-08-28T00:05:19.954Z,98355.53
2022-08-28T00:07:48.013Z,98312.06
2022-08-28T00:10:16.155Z,98326.41
2022-08-28T00:12:44.504Z,98254.88
2022-08-28T00:15:15.128Z,98355.22
2022-08-28T00:17:41.984Z,98255.69
2022-08-28T00:20:10.523Z,98326.22
2022-08-28T00:22:38.970Z,98359.09
2022-08-28T00:25:08.061Z,98340.47
2022-08-28T00:27:35.265Z,98239.38
2022-08-28T00:30:01.985Z,98295.50
2022-08-28T00:32:28.706Z,98290.84
2022-08-28T00:34:55.901Z,98306.09
2022-08-28T00:37:24.129Z,98294.50
2022-08-28T00:39:51.619Z,98181.84
2022-08-28T00:42:19.627Z,98321.41
2022-08-28T00:44:46.440Z,98335.59
2022-08-28T00:47:13.186Z,98319.69
2022-08-28T00:49:51.198Z,98356.22
2022-08-28T00:52:19.129Z,98312.13
2022-08-28T00:54:59.364Z,98359.56
2022-08-28T00:57:36.008Z,98350.59
2022-08-28T01:00:07.751Z,98344.25
2022-08-28T01:02:34.440Z,98305.19
2022-08-28T01:05:03.830Z,98313.16
2022-08-28T01:07:31.560Z,98297.88
2022-08-28T01:09:58.142Z,98312.97
2022-08-28T01:12:30.014Z,98350.41
2022-08-28T01:14:59.836Z,98320.19
2022-08-28T01:17:29.847Z,98361.19
2022-08-28T01:20:00.231Z,98353.78
2022-08-28T01:22:48.186Z,98355.75
2022-08-28T01:25:19.903Z,98329.78
2022-08-28T01:27:46.651Z,98311.47
2022-08-28T01:30:17.890Z,98293.94
2022-08-28T01:32:47.499Z,98366.19
2022-08-28T01:35:20.298Z,98319.88
2022-08-28T01:37:47.499Z,98327.66
2022-08-28T01:40:20.093Z,98333.16
2022-08-28T01:42:46.926Z,98284.88
2022-08-28T01:45:17.267Z,98333.84
2022-08-28T01:47:45.619Z,98368.31
2022-08-28T01:50:20.678Z,98205.16
2022-08-28T01:52:47.348Z,98323.97
2022-08-28T01:55:14.325Z,98381.34
2022-08-28T01:57:46.581Z,98354.75
2022-08-28T02:00:14.966Z,98327.88
2022-08-28T02:02:41.742Z,98337.00
2022-08-28T02:05:09.768Z,98379.81
2022-08-28T02:07:37.365Z,98377.72
2022-08-28T02:10:06.268Z,98299.69
2022-08-28T02:12:32.838Z,98329.09
2022-08-28T02:14:59.971Z,98382.69
2022-08-28T02:17:26.499Z,98365.34
2022-08-28T02:19:53.144Z,98350.22
2022-08-28T02:22:19.970Z,98317.25
2022-08-28T02:24:46.987Z,98328.94
2022-08-28T02:27:13.629Z,98348.50
2022-08-28T02:29:40.360Z,98334.88
2022-08-28T02:32:07.069Z,98344.88
2022-08-28T02:34:34.891Z,98361.00
2022-08-28T02:37:02.020Z,98322.06
2022-08-28T02:39:28.968Z,98356.28
2022-08-28T02:41:55.754Z,98368.63
2022-08-28T02:44:22.403Z,98335.66
2022-08-28T02:46:48.961Z,98332.28
2022-08-28T02:49:15.625Z,98350.66
2022-08-28T02:51:42.337Z,98367.13
2022-08-28T02:54:08.960Z,98324.53
2022-08-28T02:56:35.618Z,98373.66
2022-08-28T02:59:02.351Z,98336.94
2022-08-28T03:01:29.036Z,98322.53
2022-08-28T03:03:55.736Z,98328.47
2022-08-28T03:06:22.534Z,98327.28
2022-08-28T03:08:49.198Z,98382.13
2022-08-28T03:11:15.735Z,98342.56
2022-08-28T03:13:42.399Z,98333.88
2022-08-28T03:16:09.211Z,98324.81
2022-08-28T03:18:36.054Z,98364.88
2022-08-28T03:21:03.073Z,98396.78
2022-08-28T03:23:29.777Z,98364.69
2022-08-28T03:26:05.858Z,98383.34
2022-08-28T03:28:39.736Z,98391.81
2022-08-28T03:31:07.984Z,98338.72
2022-08-28T03:33:35.215Z,98334.50
2022-08-28T03:36:04.722Z,98299.44
2022-08-28T03:38:31.885Z,98390.59
2022-08-28T03:40:58.621Z,98314.34
2022-08-28T03:43:25.650Z,98346.25
2022-08-28T03:46:02.290Z,98398.75
2022-08-28T03:48:32.971Z,98333.34
2022-08-28T03:51:10.354Z,98329.00
2022-08-28T03:53:38.099Z,98338.09
2022-08-28T03:56:10.607Z,98398.00
2022-08-28T03:58:38.311Z,98354.06
2022-08-28T04:01:05.125Z,98348.50
2022-08-28T04:03:31.810Z,98341.94
2022-08-28T04:05:58.834Z,98370.19
2022-08-28T04:08:25.633Z,98378.84
2022-08-28T04:10:52.773Z,98383.03
2022-08-28T04:13:21.532Z,98424.41
2022-08-28T04:16:20.823Z,98413.31
2022-08-28T04:18:49.717Z,98340.38
2022-08-28T04:21:20.250Z,98383.28
2022-08-28T04:23:48.001Z,98362.22
2022-08-28T04:26:18.570Z,98373.53
2022-08-28T04:28:46.479Z,98424.28
2022-08-28T04:31:13.578Z,98355.09
2022-08-28T04:33:41.251Z,98403.03
2022-08-28T04:36:14.042Z,98424.69
2022-08-28T04:38:43.951Z,98431.38
2022-08-28T04:41:14.685Z,98432.59
2022-08-28T04:43:42.297Z,98405.22
2022-08-28T04:46:11.958Z,98386.00
2022-08-28T04:48:40.149Z,98355.09
2022-08-28T04:51:09.157Z,98348.72
2022-08-28T04:53:37.618Z,98425.31
2022-08-28T04:56:07.003Z,98428.91
2022-08-28T04:58:34.348Z,98372.56
2022-08-28T05:01:13.895Z,98428.03
2022-08-28T05:03:41.062Z,98409.41
2022-08-28T05:06:08.435Z,98313.75
2022-08-28T05:08:35.785Z,98396.31
2022-08-28T05:11:11.109Z,98434.03
2022-08-28T05:13:37.933Z,98363.13
2022-08-28T05:16:05.006Z,98385.97
2022-08-28T05:18:32.261Z,98401.56
2022-08-28T05:20:59.022Z,98375.38
2022-08-28T05:23:25.978Z,98381.13
2022-08-28T05:25:52.567Z,98383.38
2022-08-28T05:28:19.531Z,98390.59
2022-08-28T05:30:46.910Z,98434.13
2022-08-28T05:33:15.436Z,98408.97
2022-08-28T05:35:45.377Z,98397.28
2022-08-28T05:38:13.873Z,98458.22
2022-08-28T05:40:48.639Z,98397.56
2022-08-28T05:43:16.768Z,98454.97
2022-08-28T05:45:43.878Z,98454.16
2022-08-28T05:48:10.657Z,98385.00
2022-08-28T05:50:38.908Z,98391.13
2022-08-28T05:53:05.870Z,98377.13
2022-08-28T05:55:32.604Z,98436.78
2022-08-28T05:57:59.267Z,98397.78
2022-08-28T06:00:25.865Z,98381.38
2022-08-28T06:02:52.621Z,98393.88
2022-08-28T06:05:19.236Z,98442.00
2022-08-28T06:07:45.870Z,98407.34
2022-08-28T06:10:12.530Z,98402.28
2022-08-28T06:12:39.183Z,98420.03
2022-08-28T06:15:07.350Z,98443.41
2022-08-28T06:17:34.615Z,98364.69
2022-08-28T06:20:01.175Z,98470.28
2022-08-28T06:22:27.909Z,98459.53
2022-08-28T06:24:54.500Z,98417.09
2022-08-28T06:27:22.266Z,98405.53
2022-08-28T06:29:48.827Z,98430.03
2022-08-28T06:32:15.569Z,98411.22
2022-08-28T06:34:42.181Z,98465.63
2022-08-28T06:37:08.794Z,98447.72
2022-08-28T06:39:35.427Z,98450.47
2022-08-28T06:42:02.148Z,98488.53
2022-08-28T06:44:28.757Z,98390.44
2022-08-28T06:46:55.611Z,98393.09
2022-08-28T06:49:22.672Z,98433.56
2022-08-28T06:51:49.743Z,98480.91
2022-08-28T06:54:21.400Z,98402.50
2022-08-28T06:56:50.042Z,98477.13
2022-08-28T06:59:16.701Z,98391.50
2022-08-28T07:01:43.536Z,98414.97
2022-08-28T07:04:11.959Z,98482.50
2022-08-28T07:06:41.935Z,98435.53
2022-08-28T07:09:10.615Z,98427.88
2022-08-28T07:11:38.438Z,98481.16
2022-08-28T07:14:05.915Z,98465.56
2022-08-28T07:16:36.757Z,98498.56
2022-08-28T07:19:04.008Z,98451.97
2022-08-28T07:21:31.792Z,98433.25
2022-08-28T07:23:58.683Z,98441.13
2022-08-28T07:26:26.148Z,98446.13
2022-08-28T07:28:53.609Z,98456.69
2022-08-28T07:31:40.570Z,98490.47
2022-08-28T07:34:07.507Z,98438.53
2022-08-28T07:36:34.521Z,98452.91
2022-08-28T07:39:01.426Z,98445.88
2022-08-28T07:41:31.486Z,98485.06
2022-08-28T07:43:58.524Z,98463.22
2022-08-28T07:46:25.204Z,98459.72
2022-08-28T07:48:51.803Z,98449.22
2022-08-28T07:51:18.516Z,98437.00
2022-08-28T07:53:45.140Z,98445.94
2022-08-28T07:56:11.834Z,98446.53
2022-08-28T07:58:38.529Z,98463.28
2022-08-28T08:01:05.676Z,98492.41
2022-08-28T08:03:32.447Z,98440.09
2022-08-28T08:06:02.560Z,98512.28
2022-08-28T08:08:31.207Z,98434.31
2022-08-28T08:11:05.491Z,98433.34
2022-08-28T08:13:34.569Z,98440.97
2022-08-28T08:16:07.322Z,98477.28
2022-08-28T08:18:34.102Z,98471.72
2022-08-28T08:21:03.771Z,98516.84
2022-08-28T08:23:30.420Z,98485.69
2022-08-28T08:25:59.582Z,98482.84
2022-08-28T08:28:27.892Z,98461.41
2022-08-28T08:31:14.667Z,98512.13
2022-08-28T08:33:47.285Z,98512.25
2022-08-28T08:36:17.866Z,98511.53
2022-08-28T08:38:44.996Z,98515.47
2022-08-28T08:41:30.011Z,98509.00
2022-08-28T08:44:07.986Z,98482.41
2022-08-28T08:46:46.425Z,98467.78
2022-08-28T08:49:19.545Z,98501.41
2022-08-28T08:51:57.657Z,98463.91
2022-08-28T08:54:25.067Z,98458.31
2022-08-28T08:56:55.688Z,98461.84
2022-08-28T08:59:24.680Z,98505.63
2022-08-28T09:02:12.434Z,98509.25
2022-08-28T09:04:52.627Z,98465.81
2022-08-28T09:07:34.285Z,98514.28
2022-08-28T09:10:02.173Z,98418.91
2022-08-28T09:12:31.138Z,98513.97
2022-08-28T09:14:57.781Z,98510.56
2022-08-28T09:17:30.723Z,98457.31
2022-08-28T09:19:57.402Z,98459.19
2022-08-28T09:22:27.278Z,98365.31
2022-08-28T09:24:55.968Z,98454.91
2022-08-28T09:27:33.500Z,98488.94
2022-08-28T09:30:31.903Z,98511.72
2022-08-28T09:33:05.563Z,98450.34
2022-08-28T09:35:36.676Z,98509.88
2022-08-28T09:38:21.644Z,98474.97
2022-08-28T09:40:49.946Z,98517.22
2022-08-28T09:43:32.475Z,98443.19
2022-08-28T09:46:09.995Z,98508.31
2022-08-28T09:48:38.581Z,98500.03
2022-08-28T09:51:13.907Z,98500.19
2022-08-28T09:53:56.569Z,98491.69
2022-08-28T09:56:31.115Z,98490.97
2022-08-28T09:59:10.176Z,98496.16
2022-08-28T10:01:46.363Z,98506.66
2022-08-28T10:04:22.502Z,98499.50
2022-08-28T10:06:49.637Z,98499.22
2022-08-28T10:09:50.279Z,98506.72
2022-08-28T10:12:42.882Z,98454.91
2022-08-28T10:15:27.163Z,98509.13
2022-08-28T10:18:02.887Z,98503.75
2022-08-28T10:20:49.515Z,98490.28
2022-08-28T10:23:34.600Z,98509.91
2022-08-28T10:26:32.370Z,98501.94
2022-08-28T10:29:24.002Z,98515.88
2022-08-28T10:32:05.756Z,98508.72
2022-08-28T10:34:50.826Z,98508.22
2022-08-28T10:37:29.518Z,98510.88
2022-08-28T10:39:59.320Z,98456.06
2022-08-28T10:42:59.146Z,98509.56
2022-08-28T10:45:29.340Z,98504.19
2022-08-28T10:48:05.132Z,98473.47
2022-08-28T10:50:46.319Z,98472.19
2022-08-28T10:53:18.006Z,98507.59
2022-08-28T10:56:01.170Z,98424.81
2022-08-28T10:58:28.725Z,98458.94
2022-08-28T11:01:12.671Z,98508.31
2022-08-28T11:03:43.888Z,98510.31
2022-08-28T11:06:17.939Z,98509.97
2022-08-28T11:08:53.057Z,98488.78
2022-08-28T11:11:44.858Z,98510.00
2022-08-28T11:14:24.409Z,98461.69
2022-08-28T11:16:52.101Z,98461.63
2022-08-28T11:19:56.242Z,98508.19
2022-08-28T11:22:34.706Z,98513.00
2022-08-28T11:25:14.477Z,98472.19
2022-08-28T11:28:19.629Z,98499.63
2022-08-28T11:30:49.052Z,98497.44
2022-08-28T11:33:39.928Z,98499.84
2022-08-28T11:36:11.198Z,98454.59
2022-08-28T11:38:41.053Z,98496.38
2022-08-28T11:41:10.766Z,98500.66
2022-08-28T11:43:40.200Z,98463.50
2022-08-28T11:46:24.100Z,98494.25
2022-08-28T11:48:56.171Z,98493.72
2022-08-28T11:51:31.931Z,98501.53
2022-08-28T11:54:37.665Z,98499.09
2022-08-28T11:57:23.847Z,98499.38
2022-08-28T12:00:04.905Z,98448.16
2022-08-28T12:02:40.907Z,98495.88
2022-08-28T12:05:10.743Z,98494.22
2022-08-28T12:07:39.845Z,98498.84
2022-08-28T12:10:29.593Z,98495.03
2022-08-28T12:13:05.707Z,98399.16
2022-08-28T12:15:32.536Z,98486.72
2022-08-28T12:18:11.286Z,98486.16
2022-08-28T12:20:50.333Z,98481.31
2022-08-28T12:23:23.150Z,98482.41
2022-08-28T12:26:20.112Z,98422.34
2022-08-28T12:28:51.246Z,98438.47
2022-08-28T12:31:24.164Z,98477.50
2022-08-28T12:34:04.377Z,98414.75
2022-08-28T12:36:32.332Z,98439.81
2022-08-28T12:38:59.004Z,98426.88
2022-08-28T12:41:26.676Z,98425.53
2022-08-28T12:43:58.051Z,98207.44
2022-08-28T12:46:32.323Z,98447.72
2022-08-28T12:49:02.170Z,98476.53
2022-08-28T12:51:32.325Z,98353.00
2022-08-28T12:54:08.106Z,98469.34
2022-08-28T12:56:37.746Z,98476.19
2022-08-28T12:59:22.494Z,98481.09
2022-08-28T13:01:54.640Z,98443.75
2022-08-28T13:04:54.349Z,98474.78
2022-08-28T13:07:40.957Z,98420.19
2022-08-28T13:10:19.966Z,98470.06
2022-08-28T13:12:56.204Z,98411.50
2022-08-28T13:15:56.804Z,98463.03
2022-08-28T13:18:44.126Z,98452.41
2022-08-28T13:21:17.679Z,98467.78
2022-08-28T13:23:57.438Z,98457.16
2022-08-28T13:26:26.026Z,98412.00
2022-08-28T13:28:53.791Z,98432.03
2022-08-28T13:31:29.989Z,98386.72
2022-08-28T13:34:08.915Z,98459.25
2022-08-28T13:36:45.106Z,98419.78
2022-08-28T13:39:14.944Z,98462.13
2022-08-28T13:41:44.364Z,98238.88
2022-08-28T13:44:26.861Z,98415.56
2022-08-28T13:46:53.752Z,98316.63
2022-08-28T13:49:20.653Z,98414.44
2022-08-28T13:51:47.381Z,98079.22
2022-08-28T13:54:15.017Z,98445.38
2022-08-28T13:56:42.988Z,98325.97
2022-08-28T13:59:09.658Z,98356.13
2022-08-28T14:01:42.236Z,98403.59
2022-08-28T14:04:09.164Z,98299.94
2022-08-28T14:06:35.915Z,98378.03
2022-08-28T14:09:02.534Z,98382.91
2022-08-28T14:11:29.102Z,98400.97
2022-08-28T14:13:56.098Z,98424.75
2022-08-28T14:16:24.890Z,98263.34
2022-08-28T14:18:51.678Z,98414.25
2022-08-28T14:21:18.410Z,98354.31
2022-08-28T14:23:45.054Z,98356.16
2022-08-28T14:26:11.573Z,98321.81
2022-08-28T14:28:38.215Z,98369.91
2022-08-28T14:31:06.921Z,98437.16
2022-08-28T14:33:36.879Z,98361.00
2022-08-28T14:36:03.834Z,98385.69
2022-08-28T14:38:30.478Z,98394.28
2022-08-28T14:40:57.041Z,98361.03
2022-08-28T14:43:24.059Z,98386.03
2022-08-28T14:45:50.780Z,98423.66
2022-08-28T14:48:18.500Z,98431.91
2022-08-28T14:50:47.668Z,98356.75
2022-08-28T14:53:15.228Z,98282.47
2022-08-28T14:55:48.124Z,98426.13
2022-08-28T14:58:16.393Z,98433.06
2022-08-28T15:00:47.057Z,98427.34
2022-08-28T15:03:14.455Z,98421.50
2022-08-28T15:05:42.434Z,98429.84
2022-08-28T15:08:12.042Z,98430.38
2022-08-28T15:10:40.575Z,98394.81
2022-08-28T15:13:08.784Z,98361.25
2022-08-28T15:15:39.787Z,98392.53
2022-08-28T15:18:07.486Z,98445.41
2022-08-28T15:20:46.458Z,98438.94
2022-08-28T15:23:14.927Z,98445.81
2022-08-28T15:25:41.896Z,98421.03
2022-08-28T15:28:08.698Z,98362.22
2022-08-28T15:30:35.647Z,98421.72
2022-08-28T15:33:03.359Z,98449.97
2022-08-28T15:35:29.990Z,98377.00
2022-08-28T15:37:56.646Z,98412.28
2022-08-28T15:40:23.303Z,98355.22
2022-08-28T15:42:50.111Z,98385.84
2022-08-28T15:45:16.655Z,98400.41
2022-08-28T15:47:43.915Z,98391.00
2022-08-28T15:50:11.445Z,98447.88
2022-08-28T15:52:38.454Z,98384.03
2022-08-28T15:55:05.394Z,98423.38
2022-08-28T15:57:33.101Z,98374.34
2022-08-28T15:59:59.796Z,98359.53
2022-08-28T16:02:26.963Z,98403.72
2022-08-28T16:04:54.745Z,98376.25
2022-08-28T16:07:22.692Z,98453.00
2022-08-28T16:09:49.378Z,98414.75
2022-08-28T16:12:17.159Z,98418.22
2022-08-28T16:14:43.943Z,98454.38
2022-08-28T16:17:11.478Z,98420.41
2022-08-28T16:19:39.554Z,98376.75
2022-08-28T16:22:06.411Z,98357.56
2022-08-28T16:24:32.926Z,98408.78
2022-08-28T16:26:59.537Z,98415.78
2022-08-28T16:29:26.077Z,98368.34
2022-08-28T16:31:52.774Z,98371.31
2022-08-28T16:34:20.281Z,98403.38
2022-08-28T16:36:47.674Z,98456.97
2022-08-28T16:39:14.310Z,98387.16
2022-08-28T16:41:41.007Z,98377.50
2022-08-28T16:44:07.714Z,98449.88
2022-08-28T16:46:34.486Z,98398.44
2022-08-28T16:49:01.126Z,98477.38
2022-08-28T16:51:27.771Z,98399.66
2022-08-28T16:53:56.097Z,98425.50
2022-08-28T16:56:23.192Z,98410.06
2022-08-28T16:58:53.263Z,98403.00
2022-08-28T17:01:21.117Z,98405.22
2022-08-28T17:03:48.340Z,98426.06
2022-08-28T17:06:21.185Z,98467.38
2022-08-28T17:08:47.805Z,98402.88
2022-08-28T17:11:14.461Z,98451.91
2022-08-28T17:13:41.379Z,98369.69
2022-08-28T17:16:08.610Z,98436.88
2022-08-28T17:18:38.042Z,98474.72
2022-08-28T17:21:04.806Z,98450.84
2022-08-28T17:23:31.510Z,98431.72
2022-08-28T17:25:58.182Z,98423.38
2022-08-28T17:28:24.905Z,98391.75
2022-08-28T17:30:51.462Z,98450.41
2022-08-28T17:33:18.124Z,98427.44
2022-08-28T17:35:44.890Z,98420.50
2022-08-28T17:38:16.909Z,98424.31
2022-08-28T17:40:43.694Z,98451.22
2022-08-28T17:43:10.336Z,98459.75
2022-08-28T17:45:36.908Z,98455.34
2022-08-28T17:48:04.223Z,98457.06
2022-08-28T17:50:34.727Z,98450.38
2022-08-28T17:53:05.976Z,98406.38
2022-08-28T17:55:32.711Z,98433.97
2022-08-28T17:57:59.324Z,98486.81
2022-08-28T18:00:25.987Z,98456.59
2022-08-28T18:02:52.668Z,98421.44
2022-08-28T18:05:19.539Z,98504.22
2022-08-28T18:07:46.262Z,98421.63
2022-08-28T18:10:12.971Z,98430.84
2022-08-28T18:12:40.896Z,98506.50
2022-08-28T18:15:09.687Z,98511.56
2022-08-28T18:17:38.351Z,98451.28
2022-08-28T18:20:08.160Z,98348.19
2022-08-28T18:22:34.769Z,98452.31
2022-08-28T18:25:01.523Z,98486.03
2022-08-28T18:27:28.134Z,98489.56
2022-08-28T18:29:54.760Z,98392.28
2022-08-28T18:32:21.587Z,98471.13
2022-08-28T18:34:48.205Z,98494.28
2022-08-28T18:37:14.747Z,98496.84
2022-08-28T18:39:44.151Z,98545.06
2022-08-28T18:42:11.281Z,98539.53
2022-08-28T18:44:38.119Z,98503.84
2022-08-28T18:47:05.186Z,98503.63
2022-08-28T18:49:33.108Z,98448.78
2022-08-28T18:52:02.231Z,98435.59
2022-08-28T18:54:28.833Z,98508.66
2022-08-28T18:56:59.631Z,98549.06
2022-08-28T18:59:31.067Z,98560.00
2022-08-28T19:01:58.183Z,98466.38
2022-08-28T19:04:26.289Z,98558.31
2022-08-28T19:06:53.078Z,98476.13
2022-08-28T19:09:20.720Z,98520.69
2022-08-28T19:11:47.882Z,98547.91
2022-08-28T19:14:21.125Z,98463.31
2022-08-28T19:16:47.727Z,98493.09
2022-08-28T19:19:14.438Z,98567.22
2022-08-28T19:21:42.601Z,98502.19
2022-08-28T19:24:09.141Z,98523.13
2022-08-28T19:26:38.563Z,98504.63
2022-08-28T19:29:05.155Z,98488.88
2022-08-28T19:31:33.349Z,98491.19
2022-08-28T19:34:04.512Z,98480.66
2022-08-28T19:36:33.958Z,98533.66
2022-08-28T19:39:00.975Z,98539.41
2022-08-28T19:41:27.897Z,98555.25
2022-08-28T19:43:54.575Z,98558.66
2022-08-28T19:46:21.341Z,98567.50
2022-08-28T19:48:49.540Z,98588.66
2022-08-28T19:51:22.191Z,98535.28
2022-08-28T19:53:57.133Z,98612.59
2022-08-28T19:56:24.927Z,98625.09
2022-08-28T19:58:51.488Z,98559.59
2022-08-28T20:01:18.174Z,98592.38
2022-08-28T20:03:44.845Z,98585.19
2022-08-28T20:06:11.520Z,98592.25
2022-08-28T20:08:38.235Z,98590.41
2022-08-28T20:11:05.014Z,98635.81
2022-08-28T20:13:32.705Z,98591.00
2022-08-28T20:16:04.363Z,98636.63
2022-08-28T20:18:31.479Z,98606.44
2022-08-28T20:20:58.122Z,98624.59
2022-08-28T20:23:24.695Z,98582.75
2022-08-28T20:25:51.728Z,98619.38
2022-08-28T20:28:19.101Z,98564.38
2022-08-28T20:30:46.266Z,98633.41
2022-08-28T20:33:13.056Z,98604.59
2022-08-28T20:35:40.226Z,98642.50
2022-08-28T20:38:08.291Z,98628.06
2022-08-28T20:40:35.615Z,98605.63
2022-08-28T20:43:09.204Z,98619.22
2022-08-28T20:45:35.975Z,98629.53
2022-08-28T20:48:02.779Z,98615.16
2022-08-28T20:50:29.355Z,98641.16
2022-08-28T20:52:56.011Z,98573.16
2022-08-28T20:55:22.610Z,98666.00
2022-08-28T20:57:49.284Z,98597.38
2022-08-28T21:00:16.303Z,98657.25
2022-08-28T21:02:42.852Z,98671.31
2022-08-28T21:05:09.694Z,98627.34
2022-08-28T21:07:38.587Z,98639.19
2022-08-28T21:10:07.925Z,98617.03
2022-08-28T21:12:36.630Z,98615.94
2022-08-28T21:15:05.661Z,98677.66
2022-08-28T21:17:32.264Z,98643.13
2022-08-28T21:20:05.382Z,98685.38
2022-08-28T21:22:37.770Z,98620.63
2022-08-28T21:25:06.917Z,98693.63
2022-08-28T21:27:41.601Z,98625.66
2022-08-28T21:30:10.035Z,98684.63
2022-08-28T21:32:36.697Z,98643.22
2022-08-28T21:35:09.889Z,98618.09
2022-08-28T21:37:41.336Z,98628.81
2022-08-28T21:40:10.904Z,98698.59
2022-08-28T21:42:38.044Z,98653.53
2022-08-28T21:45:11.231Z,98658.81
2022-08-28T21:47:38.678Z,98680.69
2022-08-28T21:50:05.921Z,98658.38
2022-08-28T21:52:32.694Z,98637.38
2022-08-28T21:55:08.602Z,98654.06
2022-08-28T21:57:35.680Z,98674.72
2022-08-28T22:00:16.675Z,98672.91
2022-08-28T22:02:43.894Z,98661.97
2022-08-28T22:05:10.821Z,98657.22
2022-08-28T22:07:37.554Z,98678.31
2022-08-28T22:10:04.450Z,98678.69
2022-08-28T22:12:32.790Z,98633.13
2022-08-28T22:14:59.879Z,98618.03
2022-08-28T22:17:26.756Z,98663.06
2022-08-28T22:19:53.334Z,98674.50
2022-08-28T22:22:20.087Z,98663.72
2022-08-28T22:24:46.742Z,98667.00
2022-08-28T22:27:13.440Z,98672.19
2022-08-28T22:29:40.808Z,98639.19
2022-08-28T22:32:08.036Z,98619.94
2022-08-28T22:34:39.849Z,98626.03
2022-08-28T22:37:07.595Z,98637.84
2022-08-28T22:39:34.199Z,98667.44
2022-08-28T22:42:01.098Z,98639.41
2022-08-28T22:44:27.698Z,98657.00
2022-08-28T22:46:54.325Z,98713.13
2022-08-28T22:49:20.858Z,98659.16
2022-08-28T22:51:47.587Z,98662.88
2022-08-28T22:54:14.154Z,98674.66
2022-08-28T22:56:40.816Z,98649.19
2022-08-28T22:59:07.675Z,98648.00
2022-08-28T23:01:34.411Z,98673.13
2022-08-28T23:04:01.085Z,98669.06
2022-08-28T23:06:28.138Z,98667.66
2022-08-28T23:08:55.116Z,98669.25
2022-08-28T23:11:22.638Z,98717.88
2022-08-28T23:13:49.579Z,98710.13
2022-08-28T23:16:16.839Z,98684.97
2022-08-28T23:19:06.657Z,98665.56
2022-08-28T23:21:30.069Z,98700.53
2022-08-28T23:23:57.226Z,98711.75
2022-08-28T23:26:25.287Z,98690.09
2022-08-28T23:28:52.393Z,98697.88
2022-08-28T23:31:19.191Z,98644.75
2022-08-28T23:33:46.028Z,98643.13
2022-08-28T23:36:13.411Z,98691.09
2022-08-28T23:38:43.298Z,98708.91
2022-08-28T23:41:11.292Z,98653.88
2022-08-28T23:43:38.531Z,98674.75
2022-08-28T23:46:06.185Z,98659.22
2022-08-28T23:48:32.981Z,98675.38
2022-08-28T23:50:59.753Z,98669.88
2022-08-28T23:53:26.447Z,98661.72
2022-08-28T23:55:54.179Z,98678.03
2022-08-28T23:58:22.516Z,98697.88
